Hodgeville, Canada
Current Conditions -  °F | °C
As of 4:21 AM on Wednesday 26 Nov 2014 (Local Time) from CYYN Reporting Station
Overcast Overcast  
Wind Chill: -17°   Ceiling: 700
Heat Index: -12°   Visibility: 9mi
Dew Point: -13°   Wind: 6mph
Humidity: 92%   Direction: 100°E
Pressure: 30.19"   Gusts: NA
Location:  50.12°N, 106.98°W
Report Text: CYYN 261021Z AUTO 10005KT 9SM BKN007 OVC065 M12/M13 A3019 RMK PRESRR SLP276
Loading
Personal Weather Stations






























Interactive Weather Map New forecast layout! Learn more

10-Day Weather Forecast

Advertisements
Track Severe Weather on mobile